首页
METAR-TAF:

METAR-TAF

机场 :

Cherry Point, 北卡罗来纳州, 美国

纬度: 34-53-52N, 经度: 076-52-51W, 海拔: 8米

当前天气观测

该预报发布于24分钟前的10:54 UTC
风速4节,风向西
温度 10°C
湿度 87%
气压 1016 hPa
能見度: 16.1公里
少量云层高于20000英尺

METAR: KNKT 211054Z 28004KT 10SM FEW200 10/08 A2999 RMK AO2 SLP152 T01000078

时间: 07:18 (11:18 UTC)

预报

预报有效从21日的 09点(UTC)到 22日的 09点(UTC)
风速6节,风向多变
能见度10公里或以上
少量云层高于10000英尺
成为
从 21日的 13点(UTC)到 21日的 15点(UTC)
风速12节,风向西
能见度10公里或以上
散云层高于3000英尺
多云层高于7000英尺
短暂存在
从 21日的 18点(UTC)到 22日的 00点(UTC)
能見度: 6000
散云层高于2000英尺
多云层高于5000英尺
小阵雨, 轻雾
从 22日的 0000点(UTC)
风速6节,风向多变
能见度10公里或以上
散云层高于3000英尺
散云层高于7000英尺

TAF: KNKT 2109/2209 VRB06KT 9999 FEW100 QNH2994INS BECMG 2113/2115 27012KT 9999 SCT030 BKN070 QNH3002INS TEMPO 2118/2200 6000 -SHRA BR SCT020 BKN050 FM220000 VRB06KT 9999 SCT030 SCT070 QNH3004INS T18/2118Z T11/2209Z

超过4000个机场的气象观测和天气预报(METAR&TAF报告)。

可查询的气象台以黄色和红色小点在地图上表示。

将鼠标移到小点上方,可查看气象台名称。

然后点击查看天气观测和预报。

如需切换地图:点击带黑十字的绿色按钮放大地图;点击带横线的绿色按钮缩小地图;或者点击绿色箭头查看邻近地区的地图。


METAR-TAF: